Etusivu
METAR-TAF:

METAR-TAF

Lentoasemat :

Sveg, Ruotsi

Leveyspiiri: 62-02-52N, Pituuspiiri: 014-25-22E, korkeus merenpinnasta: 359 m

Tämänhetkinen sää

Tämä raportti tehtiin 19 tuntia ja 17 minuuttia sitten, kello 14.50 UTC
tyyntä
Lämpötila -5°C
Kosteus 93%
Ilmanpaine 1015 hPa

METAR: ESND 161450Z AUTO 00000KT //// R09///// // ///////// M05/M06 Q1015

Aika: 11:07 (10:07 UTC)


TAF: puuttuu

Säähavainnot ja -ennusteet yli 4000 lentoasemalta (METAR- ja TAF-raportit).

Käytössä olevat sääasemat on merkitty karttaan keltaisilla ja punaisilla pisteillä.

Aseta hiiri pisteen päälle nähdäksesi sääaseman nimen.

Klikkaa sitten nähdäksesi säähavainnot ja -ennusteet.

Kartan vaihtaminen: klikkaa mustalla rastilla varustettuja vihreitä pisteitä, niin voit zoomata sisään; viivalla varustettua vihreää pistettä, niin voit zoomata ulos tai vihreitä nuolia, niin pääset viereisille kartoille.


METAR-TAF: